sensor_id;sensor_type;location;lat;lon;timestamp;P1;durP1;ratioP1;P2;durP2;ratioP2
10586;SDS011;5341;47.606;7.576;2022-08-21T00:01:16;2.78;;;2.05;;
10586;SDS011;5341;47.606;7.576;2022-08-21T00:03:47;3.03;;;1.80;;
10586;SDS011;5341;47.606;7.576;2022-08-21T00:06:15;2.10;;;1.63;;
10586;SDS011;5341;47.606;7.576;2022-08-21T00:08:45;3.08;;;1.65;;
10586;SDS011;5341;47.606;7.576;2022-08-21T00:11:14;4.43;;;1.98;;
10586;SDS011;5341;47.606;7.576;2022-08-21T00:13:41;6.47;;;1.90;;
10586;SDS011;5341;47.606;7.576;2022-08-21T00:16:09;5.38;;;1.65;;
10586;SDS011;5341;47.606;7.576;2022-08-21T00:18:37;4.85;;;1.80;;
10586;SDS011;5341;47.606;7.576;2022-08-21T00:21:06;2.50;;;1.70;;
10586;SDS011;5341;47.606;7.576;2022-08-21T00:23:34;2.65;;;1.88;;
10586;SDS011;5341;47.606;7.576;2022-08-21T00:26:03;4.68;;;1.80;;
10586;SDS011;5341;47.606;7.576;2022-08-21T00:28:31;4.88;;;1.70;;
10586;SDS011;5341;47.606;7.576;2022-08-21T00:31:01;3.55;;;2.00;;
10586;SDS011;5341;47.606;7.576;2022-08-21T00:33:30;3.70;;;1.80;;
10586;SDS011;5341;47.606;7.576;2022-08-21T00:35:59;4.20;;;1.83;;
10586;SDS011;5341;47.606;7.576;2022-08-21T00:38:27;2.25;;;1.60;;
10586;SDS011;5341;47.606;7.576;2022-08-21T00:40:56;3.92;;;1.95;;
10586;SDS011;5341;47.606;7.576;2022-08-21T00:43:28;2.88;;;1.98;;
10586;SDS011;5341;47.606;7.576;2022-08-21T00:45:58;3.42;;;1.63;;
10586;SDS011;5341;47.606;7.576;2022-08-21T00:48:29;3.83;;;1.77;;
10586;SDS011;5341;47.606;7.576;2022-08-21T00:51:00;4.60;;;1.80;;
10586;SDS011;5341;47.606;7.576;2022-08-21T00:53:31;2.85;;;1.65;;
10586;SDS011;5341;47.606;7.576;2022-08-21T00:56:01;1.77;;;1.50;;
10586;SDS011;5341;47.606;7.576;2022-08-21T00:58:34;3.30;;;1.63;;
10586;SDS011;5341;47.606;7.576;2022-08-21T01:01:04;2.25;;;1.60;;
10586;SDS011;5341;47.606;7.576;2022-08-21T01:03:34;2.95;;;1.70;;
10586;SDS011;5341;47.606;7.576;2022-08-21T01:06:03;2.60;;;1.60;;
10586;SDS011;5341;47.606;7.576;2022-08-21T01:08:34;2.65;;;1.55;;
10586;SDS011;5341;47.606;7.576;2022-08-21T01:11:03;3.30;;;1.90;;
10586;SDS011;5341;47.606;7.576;2022-08-21T01:13:31;2.53;;;1.60;;
10586;SDS011;5341;47.606;7.576;2022-08-21T01:16:04;5.60;;;1.88;;
10586;SDS011;5341;47.606;7.576;2022-08-21T01:18:34;3.83;;;1.70;;
10586;SDS011;5341;47.606;7.576;2022-08-21T01:21:05;2.70;;;1.75;;
10586;SDS011;5341;47.606;7.576;2022-08-21T01:23:35;3.28;;;1.70;;
10586;SDS011;5341;47.606;7.576;2022-08-21T01:26:07;2.05;;;1.63;;
10586;SDS011;5341;47.606;7.576;2022-08-21T01:28:36;4.47;;;1.70;;
10586;SDS011;5341;47.606;7.576;2022-08-21T01:31:08;3.05;;;1.70;;
10586;SDS011;5341;47.606;7.576;2022-08-21T01:33:39;2.60;;;1.70;;
10586;SDS011;5341;47.606;7.576;2022-08-21T01:36:09;4.20;;;1.73;;
10586;SDS011;5341;47.606;7.576;2022-08-21T01:38:37;2.53;;;1.90;;
10586;SDS011;5341;47.606;7.576;2022-08-21T01:41:05;4.97;;;1.85;;
10586;SDS011;5341;47.606;7.576;2022-08-21T01:43:33;4.13;;;1.75;;
10586;SDS011;5341;47.606;7.576;2022-08-21T01:46:02;4.10;;;1.60;;
10586;SDS011;5341;47.606;7.576;2022-08-21T01:48:30;3.10;;;2.00;;
10586;SDS011;5341;47.606;7.576;2022-08-21T01:50:58;2.10;;;1.65;;
10586;SDS011;5341;47.606;7.576;2022-08-21T01:53:28;4.30;;;1.80;;
10586;SDS011;5341;47.606;7.576;2022-08-21T01:55:55;4.53;;;1.80;;
10586;SDS011;5341;47.606;7.576;2022-08-21T01:58:23;2.63;;;1.90;;
10586;SDS011;5341;47.606;7.576;2022-08-21T02:00:51;4.43;;;1.85;;
10586;SDS011;5341;47.606;7.576;2022-08-21T02:03:19;2.28;;;1.80;;
10586;SDS011;5341;47.606;7.576;2022-08-21T02:05:47;2.95;;;1.73;;
10586;SDS011;5341;47.606;7.576;2022-08-21T02:08:14;3.85;;;1.70;;
10586;SDS011;5341;47.606;7.576;2022-08-21T02:10:44;2.22;;;1.70;;
10586;SDS011;5341;47.606;7.576;2022-08-21T02:13:12;1.98;;;1.70;;
10586;SDS011;5341;47.606;7.576;2022-08-21T02:15:39;3.80;;;1.70;;
10586;SDS011;5341;47.606;7.576;2022-08-21T02:18:07;2.90;;;1.60;;
10586;SDS011;5341;47.606;7.576;2022-08-21T02:20:37;2.50;;;1.70;;
10586;SDS011;5341;47.606;7.576;2022-08-21T02:23:06;3.25;;;1.73;;
10586;SDS011;5341;47.606;7.576;2022-08-21T02:25:38;4.75;;;1.83;;
10586;SDS011;5341;47.606;7.576;2022-08-21T02:28:08;2.90;;;1.65;;
10586;SDS011;5341;47.606;7.576;2022-08-21T02:30:38;6.78;;;1.88;;
10586;SDS011;5341;47.606;7.576;2022-08-21T02:33:08;1.83;;;1.63;;
10586;SDS011;5341;47.606;7.576;2022-08-21T02:35:37;3.33;;;1.60;;
10586;SDS011;5341;47.606;7.576;2022-08-21T02:38:08;2.75;;;1.63;;
10586;SDS011;5341;47.606;7.576;2022-08-21T02:40:38;2.80;;;1.60;;
10586;SDS011;5341;47.606;7.576;2022-08-21T02:43:08;2.58;;;1.63;;
10586;SDS011;5341;47.606;7.576;2022-08-21T02:45:36;2.67;;;1.60;;
10586;SDS011;5341;47.606;7.576;2022-08-21T02:48:06;5.60;;;1.90;;
10586;SDS011;5341;47.606;7.576;2022-08-21T02:50:37;2.60;;;1.52;;
10586;SDS011;5341;47.606;7.576;2022-08-21T02:53:07;2.40;;;1.70;;
10586;SDS011;5341;47.606;7.576;2022-08-21T02:55:36;3.15;;;1.52;;
10586;SDS011;5341;47.606;7.576;2022-08-21T02:58:05;2.00;;;1.75;;
10586;SDS011;5341;47.606;7.576;2022-08-21T03:00:35;5.57;;;1.60;;
10586;SDS011;5341;47.606;7.576;2022-08-21T03:03:04;3.13;;;1.70;;
10586;SDS011;5341;47.606;7.576;2022-08-21T03:05:34;1.65;;;1.50;;
10586;SDS011;5341;47.606;7.576;2022-08-21T03:08:04;2.40;;;1.67;;
10586;SDS011;5341;47.606;7.576;2022-08-21T03:10:35;4.30;;;1.75;;
10586;SDS011;5341;47.606;7.576;2022-08-21T03:13:03;2.95;;;1.77;;
10586;SDS011;5341;47.606;7.576;2022-08-21T03:15:32;3.83;;;1.90;;
10586;SDS011;5341;47.606;7.576;2022-08-21T03:18:00;3.35;;;1.77;;
10586;SDS011;5341;47.606;7.576;2022-08-21T03:20:29;3.72;;;1.60;;
10586;SDS011;5341;47.606;7.576;2022-08-21T03:22:57;2.35;;;1.45;;
10586;SDS011;5341;47.606;7.576;2022-08-21T03:25:26;4.53;;;1.67;;
10586;SDS011;5341;47.606;7.576;2022-08-21T03:27:54;1.67;;;1.58;;
10586;SDS011;5341;47.606;7.576;2022-08-21T03:30:22;3.65;;;1.60;;
10586;SDS011;5341;47.606;7.576;2022-08-21T03:32:51;1.70;;;1.60;;
10586;SDS011;5341;47.606;7.576;2022-08-21T03:35:19;2.70;;;1.60;;
10586;SDS011;5341;47.606;7.576;2022-08-21T03:37:46;2.55;;;1.60;;
10586;SDS011;5341;47.606;7.576;2022-08-21T03:40:15;3.35;;;1.60;;
10586;SDS011;5341;47.606;7.576;2022-08-21T03:42:46;2.88;;;1.70;;
10586;SDS011;5341;47.606;7.576;2022-08-21T03:45:14;2.55;;;1.65;;
10586;SDS011;5341;47.606;7.576;2022-08-21T03:47:52;3.15;;;1.60;;
10586;SDS011;5341;47.606;7.576;2022-08-21T03:50:21;4.53;;;2.05;;
10586;SDS011;5341;47.606;7.576;2022-08-21T03:52:49;2.55;;;1.90;;
10586;SDS011;5341;47.606;7.576;2022-08-21T03:55:17;4.03;;;2.15;;
10586;SDS011;5341;47.606;7.576;2022-08-21T03:57:44;6.10;;;2.55;;
10586;SDS011;5341;47.606;7.576;2022-08-21T04:00:13;3.70;;;2.45;;
10586;SDS011;5341;47.606;7.576;2022-08-21T04:02:43;3.30;;;2.60;;
10586;SDS011;5341;47.606;7.576;2022-08-21T04:05:12;2.80;;;2.60;;
10586;SDS011;5341;47.606;7.576;2022-08-21T04:07:52;3.20;;;2.90;;
10586;SDS011;5341;47.606;7.576;2022-08-21T04:10:21;4.05;;;2.83;;
10586;SDS011;5341;47.606;7.576;2022-08-21T04:12:50;4.40;;;2.90;;
10586;SDS011;5341;47.606;7.576;2022-08-21T04:15:18;4.63;;;3.45;;
10586;SDS011;5341;47.606;7.576;2022-08-21T04:17:46;3.47;;;3.03;;
10586;SDS011;5341;47.606;7.576;2022-08-21T04:20:16;3.58;;;3.00;;
10586;SDS011;5341;47.606;7.576;2022-08-21T04:22:44;3.78;;;3.08;;
10586;SDS011;5341;47.606;7.576;2022-08-21T04:25:12;5.00;;;3.30;;
10586;SDS011;5341;47.606;7.576;2022-08-21T04:27:41;4.10;;;3.42;;
10586;SDS011;5341;47.606;7.576;2022-08-21T04:30:09;3.78;;;3.40;;
10586;SDS011;5341;47.606;7.576;2022-08-21T04:32:38;4.53;;;3.92;;
10586;SDS011;5341;47.606;7.576;2022-08-21T04:35:09;5.45;;;4.15;;
10586;SDS011;5341;47.606;7.576;2022-08-21T04:37:39;4.93;;;4.07;;
10586;SDS011;5341;47.606;7.576;2022-08-21T04:40:07;8.13;;;4.60;;
10586;SDS011;5341;47.606;7.576;2022-08-21T04:42:41;6.82;;;4.40;;
10586;SDS011;5341;47.606;7.576;2022-08-21T04:45:15;5.15;;;4.43;;
10586;SDS011;5341;47.606;7.576;2022-08-21T04:47:46;4.53;;;4.10;;
10586;SDS011;5341;47.606;7.576;2022-08-21T04:50:15;6.03;;;4.65;;
10586;SDS011;5341;47.606;7.576;2022-08-21T04:53:04;4.72;;;4.28;;
10586;SDS011;5341;47.606;7.576;2022-08-21T04:55:34;5.22;;;3.58;;
10586;SDS011;5341;47.606;7.576;2022-08-21T04:58:03;6.93;;;3.67;;
10586;SDS011;5341;47.606;7.576;2022-08-21T05:00:32;6.40;;;3.30;;
10586;SDS011;5341;47.606;7.576;2022-08-21T05:03:00;5.43;;;3.38;;
10586;SDS011;5341;47.606;7.576;2022-08-21T05:05:30;3.10;;;2.80;;
10586;SDS011;5341;47.606;7.576;2022-08-21T05:07:59;3.22;;;2.90;;
10586;SDS011;5341;47.606;7.576;2022-08-21T05:10:30;3.50;;;2.95;;
10586;SDS011;5341;47.606;7.576;2022-08-21T05:12:59;3.25;;;2.92;;
10586;SDS011;5341;47.606;7.576;2022-08-21T05:15:27;5.35;;;3.10;;
10586;SDS011;5341;47.606;7.576;2022-08-21T05:17:56;3.58;;;2.90;;
10586;SDS011;5341;47.606;7.576;2022-08-21T05:20:23;3.83;;;3.00;;
10586;SDS011;5341;47.606;7.576;2022-08-21T05:22:51;6.40;;;2.78;;
10586;SDS011;5341;47.606;7.576;2022-08-21T05:25:19;4.32;;;2.58;;
10586;SDS011;5341;47.606;7.576;2022-08-21T05:27:48;3.75;;;2.55;;
10586;SDS011;5341;47.606;7.576;2022-08-21T05:30:16;3.42;;;2.42;;
10586;SDS011;5341;47.606;7.576;2022-08-21T05:32:44;3.88;;;2.70;;
10586;SDS011;5341;47.606;7.576;2022-08-21T05:35:11;4.45;;;2.75;;
10586;SDS011;5341;47.606;7.576;2022-08-21T05:37:39;5.07;;;3.50;;
10586;SDS011;5341;47.606;7.576;2022-08-21T05:40:07;5.32;;;3.65;;
10586;SDS011;5341;47.606;7.576;2022-08-21T05:42:36;6.50;;;4.32;;
10586;SDS011;5341;47.606;7.576;2022-08-21T05:45:05;4.95;;;4.28;;
10586;SDS011;5341;47.606;7.576;2022-08-21T05:47:36;6.63;;;4.43;;
10586;SDS011;5341;47.606;7.576;2022-08-21T05:50:05;6.22;;;5.28;;
10586;SDS011;5341;47.606;7.576;2022-08-21T05:52:34;6.15;;;5.55;;
10586;SDS011;5341;47.606;7.576;2022-08-21T05:55:01;8.15;;;6.22;;
10586;SDS011;5341;47.606;7.576;2022-08-21T05:57:31;5.60;;;5.00;;
10586;SDS011;5341;47.606;7.576;2022-08-21T06:00:09;5.90;;;5.28;;
10586;SDS011;5341;47.606;7.576;2022-08-21T06:02:39;7.85;;;5.40;;
10586;SDS011;5341;47.606;7.576;2022-08-21T06:05:06;9.10;;;5.28;;
10586;SDS011;5341;47.606;7.576;2022-08-21T06:07:34;6.35;;;5.25;;
10586;SDS011;5341;47.606;7.576;2022-08-21T06:10:02;6.75;;;5.70;;
10586;SDS011;5341;47.606;7.576;2022-08-21T06:12:30;5.80;;;5.28;;
10586;SDS011;5341;47.606;7.576;2022-08-21T06:14:58;5.60;;;5.10;;
10586;SDS011;5341;47.606;7.576;2022-08-21T06:17:27;10.60;;;5.05;;
10586;SDS011;5341;47.606;7.576;2022-08-21T06:19:55;4.93;;;4.43;;
10586;SDS011;5341;47.606;7.576;2022-08-21T06:22:22;4.30;;;3.72;;
10586;SDS011;5341;47.606;7.576;2022-08-21T06:24:50;4.28;;;3.67;;
10586;SDS011;5341;47.606;7.576;2022-08-21T06:27:18;4.22;;;3.60;;
10586;SDS011;5341;47.606;7.576;2022-08-21T06:29:46;5.25;;;3.15;;
10586;SDS011;5341;47.606;7.576;2022-08-21T06:32:14;3.83;;;2.90;;
10586;SDS011;5341;47.606;7.576;2022-08-21T06:34:45;4.88;;;2.70;;
10586;SDS011;5341;47.606;7.576;2022-08-21T06:37:18;3.03;;;2.35;;
10586;SDS011;5341;47.606;7.576;2022-08-21T06:39:51;4.65;;;2.60;;
10586;SDS011;5341;47.606;7.576;2022-08-21T06:42:21;3.25;;;2.58;;
10586;SDS011;5341;47.606;7.576;2022-08-21T06:44:48;3.10;;;2.47;;
10586;SDS011;5341;47.606;7.576;2022-08-21T06:47:16;2.97;;;2.20;;
10586;SDS011;5341;47.606;7.576;2022-08-21T06:49:46;5.10;;;2.13;;
10586;SDS011;5341;47.606;7.576;2022-08-21T06:52:15;2.33;;;1.98;;
10586;SDS011;5341;47.606;7.576;2022-08-21T06:54:42;2.28;;;1.70;;
10586;SDS011;5341;47.606;7.576;2022-08-21T06:57:10;2.90;;;1.83;;
10586;SDS011;5341;47.606;7.576;2022-08-21T06:59:38;2.70;;;1.88;;
10586;SDS011;5341;47.606;7.576;2022-08-21T07:02:06;3.72;;;1.80;;
10586;SDS011;5341;47.606;7.576;2022-08-21T07:04:33;2.75;;;1.65;;
10586;SDS011;5341;47.606;7.576;2022-08-21T07:07:03;2.60;;;1.83;;
10586;SDS011;5341;47.606;7.576;2022-08-21T07:09:30;2.22;;;1.83;;
10586;SDS011;5341;47.606;7.576;2022-08-21T07:11:58;3.60;;;1.80;;
10586;SDS011;5341;47.606;7.576;2022-08-21T07:14:26;2.63;;;1.67;;
10586;SDS011;5341;47.606;7.576;2022-08-21T07:16:54;1.98;;;1.67;;
10586;SDS011;5341;47.606;7.576;2022-08-21T07:19:21;2.75;;;2.00;;
10586;SDS011;5341;47.606;7.576;2022-08-21T07:21:49;2.50;;;2.30;;
10586;SDS011;5341;47.606;7.576;2022-08-21T07:24:18;3.22;;;2.80;;
10586;SDS011;5341;47.606;7.576;2022-08-21T07:26:45;3.60;;;2.90;;
10586;SDS011;5341;47.606;7.576;2022-08-21T07:29:13;7.22;;;4.45;;
10586;SDS011;5341;47.606;7.576;2022-08-21T07:31:41;5.90;;;4.78;;
10586;SDS011;5341;47.606;7.576;2022-08-21T07:34:09;4.55;;;4.13;;
10586;SDS011;5341;47.606;7.576;2022-08-21T07:36:37;4.53;;;4.13;;
10586;SDS011;5341;47.606;7.576;2022-08-21T07:39:06;5.43;;;4.93;;
10586;SDS011;5341;47.606;7.576;2022-08-21T07:41:44;4.72;;;4.30;;
10586;SDS011;5341;47.606;7.576;2022-08-21T07:44:14;5.30;;;4.80;;
10586;SDS011;5341;47.606;7.576;2022-08-21T07:46:45;7.80;;;5.35;;
10586;SDS011;5341;47.606;7.576;2022-08-21T07:49:14;6.40;;;4.72;;
10586;SDS011;5341;47.606;7.576;2022-08-21T07:51:44;5.05;;;4.53;;
10586;SDS011;5341;47.606;7.576;2022-08-21T07:54:17;6.78;;;4.70;;
10586;SDS011;5341;47.606;7.576;2022-08-21T07:56:46;5.93;;;5.40;;
10586;SDS011;5341;47.606;7.576;2022-08-21T07:59:15;5.65;;;5.15;;
10586;SDS011;5341;47.606;7.576;2022-08-21T08:01:46;7.47;;;6.20;;
10586;SDS011;5341;47.606;7.576;2022-08-21T08:04:15;6.07;;;5.47;;
10586;SDS011;5341;47.606;7.576;2022-08-21T08:06:43;5.50;;;5.00;;
10586;SDS011;5341;47.606;7.576;2022-08-21T08:09:12;5.00;;;4.50;;
10586;SDS011;5341;47.606;7.576;2022-08-21T08:11:41;5.40;;;4.90;;
10586;SDS011;5341;47.606;7.576;2022-08-21T08:14:12;5.43;;;4.82;;
10586;SDS011;5341;47.606;7.576;2022-08-21T08:16:41;5.93;;;4.50;;
10586;SDS011;5341;47.606;7.576;2022-08-21T08:19:09;4.32;;;3.92;;
10586;SDS011;5341;47.606;7.576;2022-08-21T08:21:37;5.95;;;4.32;;
10586;SDS011;5341;47.606;7.576;2022-08-21T08:24:04;5.93;;;4.03;;
10586;SDS011;5341;47.606;7.576;2022-08-21T08:26:32;4.43;;;3.65;;
10586;SDS011;5341;47.606;7.576;2022-08-21T08:29:00;4.05;;;3.65;;
10586;SDS011;5341;47.606;7.576;2022-08-21T08:31:30;3.97;;;3.58;;
10586;SDS011;5341;47.606;7.576;2022-08-21T08:33:59;6.07;;;4.10;;
10586;SDS011;5341;47.606;7.576;2022-08-21T08:36:31;4.38;;;3.88;;
10586;SDS011;5341;47.606;7.576;2022-08-21T08:39:00;3.83;;;3.53;;
10586;SDS011;5341;47.606;7.576;2022-08-21T08:41:29;4.40;;;3.90;;
10586;SDS011;5341;47.606;7.576;2022-08-21T08:44:04;8.10;;;4.40;;
10586;SDS011;5341;47.606;7.576;2022-08-21T08:46:36;3.85;;;3.38;;
10586;SDS011;5341;47.606;7.576;2022-08-21T08:49:11;5.25;;;3.35;;
10586;SDS011;5341;47.606;7.576;2022-08-21T08:51:47;3.58;;;3.10;;
10586;SDS011;5341;47.606;7.576;2022-08-21T08:54:21;3.42;;;2.72;;
10586;SDS011;5341;47.606;7.576;2022-08-21T08:56:57;3.13;;;2.83;;
10586;SDS011;5341;47.606;7.576;2022-08-21T08:59:29;3.58;;;2.47;;
10586;SDS011;5341;47.606;7.576;2022-08-21T09:02:06;2.60;;;2.40;;
10586;SDS011;5341;47.606;7.576;2022-08-21T09:04:38;2.72;;;2.50;;
10586;SDS011;5341;47.606;7.576;2022-08-21T09:07:09;2.65;;;2.45;;
10586;SDS011;5341;47.606;7.576;2022-08-21T09:09:48;3.17;;;2.50;;
10586;SDS011;5341;47.606;7.576;2022-08-21T09:12:34;2.97;;;2.25;;
10586;SDS011;5341;47.606;7.576;2022-08-21T09:15:15;4.70;;;2.70;;
10586;SDS011;5341;47.606;7.576;2022-08-21T09:18:02;3.13;;;2.30;;
10586;SDS011;5341;47.606;7.576;2022-08-21T09:20:49;2.40;;;2.20;;
10586;SDS011;5341;47.606;7.576;2022-08-21T09:23:31;3.70;;;2.47;;
10586;SDS011;5341;47.606;7.576;2022-08-21T09:26:18;2.97;;;2.40;;
10586;SDS011;5341;47.606;7.576;2022-08-21T09:28:50;3.22;;;2.13;;
10586;SDS011;5341;47.606;7.576;2022-08-21T09:31:22;2.42;;;2.22;;
10586;SDS011;5341;47.606;7.576;2022-08-21T09:33:58;2.85;;;2.10;;
10586;SDS011;5341;47.606;7.576;2022-08-21T09:36:31;2.50;;;2.30;;
10586;SDS011;5341;47.606;7.576;2022-08-21T09:39:03;2.53;;;2.17;;
10586;SDS011;5341;47.606;7.576;2022-08-21T09:41:32;4.85;;;2.00;;
10586;SDS011;5341;47.606;7.576;2022-08-21T09:44:02;2.30;;;2.00;;
10586;SDS011;5341;47.606;7.576;2022-08-21T09:46:31;3.97;;;2.00;;
10586;SDS011;5341;47.606;7.576;2022-08-21T09:49:02;7.70;;;2.38;;
10586;SDS011;5341;47.606;7.576;2022-08-21T09:51:31;2.53;;;2.03;;
10586;SDS011;5341;47.606;7.576;2022-08-21T09:54:10;3.22;;;2.35;;
10586;SDS011;5341;47.606;7.576;2022-08-21T09:56:51;5.10;;;2.25;;
10586;SDS011;5341;47.606;7.576;2022-08-21T09:59:41;4.25;;;2.05;;
10586;SDS011;5341;47.606;7.576;2022-08-21T10:02:20;2.83;;;1.92;;
10586;SDS011;5341;47.606;7.576;2022-08-21T10:04:53;2.05;;;1.88;;
10586;SDS011;5341;47.606;7.576;2022-08-21T10:07:23;2.50;;;2.00;;
10586;SDS011;5341;47.606;7.576;2022-08-21T10:10:00;3.58;;;2.05;;
10586;SDS011;5341;47.606;7.576;2022-08-21T10:12:32;3.00;;;2.00;;
10586;SDS011;5341;47.606;7.576;2022-08-21T10:15:12;2.63;;;2.05;;
10586;SDS011;5341;47.606;7.576;2022-08-21T10:17:48;2.03;;;1.67;;
10586;SDS011;5341;47.606;7.576;2022-08-21T10:20:30;2.03;;;1.80;;
10586;SDS011;5341;47.606;7.576;2022-08-21T10:23:10;3.47;;;2.00;;
10586;SDS011;5341;47.606;7.576;2022-08-21T10:25:55;4.25;;;2.20;;
10586;SDS011;5341;47.606;7.576;2022-08-21T10:28:30;2.85;;;1.90;;
10586;SDS011;5341;47.606;7.576;2022-08-21T10:31:07;4.65;;;2.03;;
10586;SDS011;5341;47.606;7.576;2022-08-21T10:33:46;4.38;;;1.95;;
10586;SDS011;5341;47.606;7.576;2022-08-21T10:36:25;2.90;;;1.60;;
10586;SDS011;5341;47.606;7.576;2022-08-21T10:39:03;2.10;;;1.90;;
10586;SDS011;5341;47.606;7.576;2022-08-21T10:41:45;2.30;;;1.67;;
10586;SDS011;5341;47.606;7.576;2022-08-21T10:44:30;1.90;;;1.60;;
10586;SDS011;5341;47.606;7.576;2022-08-21T10:47:06;3.05;;;1.85;;
10586;SDS011;5341;47.606;7.576;2022-08-21T10:49:39;3.97;;;1.63;;
10586;SDS011;5341;47.606;7.576;2022-08-21T10:55:12;2.58;;;1.60;;
10586;SDS011;5341;47.606;7.576;2022-08-21T10:57:45;2.40;;;1.70;;
10586;SDS011;5341;47.606;7.576;2022-08-21T11:00:17;4.20;;;1.60;;
10586;SDS011;5341;47.606;7.576;2022-08-21T11:02:50;2.40;;;1.77;;
10586;SDS011;5341;47.606;7.576;2022-08-21T11:05:24;2.58;;;1.50;;
10586;SDS011;5341;47.606;7.576;2022-08-21T11:08:01;5.43;;;1.73;;
10586;SDS011;5341;47.606;7.576;2022-08-21T11:10:35;2.75;;;1.75;;
10586;SDS011;5341;47.606;7.576;2022-08-21T11:13:08;3.50;;;1.80;;
10586;SDS011;5341;47.606;7.576;2022-08-21T11:15:42;2.15;;;1.70;;
10586;SDS011;5341;47.606;7.576;2022-08-21T11:18:19;3.15;;;1.98;;
10586;SDS011;5341;47.606;7.576;2022-08-21T11:20:54;2.35;;;1.90;;
10586;SDS011;5341;47.606;7.576;2022-08-21T11:23:31;2.00;;;1.80;;
10586;SDS011;5341;47.606;7.576;2022-08-21T11:26:07;3.75;;;1.70;;
10586;SDS011;5341;47.606;7.576;2022-08-21T11:28:40;2.67;;;1.83;;
10586;SDS011;5341;47.606;7.576;2022-08-21T11:31:15;4.07;;;1.83;;
10586;SDS011;5341;47.606;7.576;2022-08-21T11:34:01;1.92;;;1.70;;
10586;SDS011;5341;47.606;7.576;2022-08-21T11:36:47;2.13;;;1.70;;
10586;SDS011;5341;47.606;7.576;2022-08-21T11:39:25;3.88;;;1.70;;
10586;SDS011;5341;47.606;7.576;2022-08-21T11:42:02;1.60;;;1.50;;
10586;SDS011;5341;47.606;7.576;2022-08-21T11:44:42;6.25;;;2.10;;
10586;SDS011;5341;47.606;7.576;2022-08-21T11:47:18;2.85;;;1.80;;
10586;SDS011;5341;47.606;7.576;2022-08-21T11:49:59;2.78;;;1.67;;
10586;SDS011;5341;47.606;7.576;2022-08-21T11:52:35;4.30;;;1.63;;
10586;SDS011;5341;47.606;7.576;2022-08-21T11:55:11;1.92;;;1.60;;
10586;SDS011;5341;47.606;7.576;2022-08-21T11:57:44;2.85;;;1.65;;
10586;SDS011;5341;47.606;7.576;2022-08-21T12:00:19;1.50;;;1.40;;
10586;SDS011;5341;47.606;7.576;2022-08-21T12:02:52;2.17;;;1.50;;
10586;SDS011;5341;47.606;7.576;2022-08-21T12:05:24;2.20;;;1.35;;
10586;SDS011;5341;47.606;7.576;2022-08-21T12:08:06;2.85;;;1.30;;
10586;SDS011;5341;47.606;7.576;2022-08-21T12:10:40;1.40;;;1.30;;
10586;SDS011;5341;47.606;7.576;2022-08-21T12:13:22;2.72;;;1.40;;
10586;SDS011;5341;47.606;7.576;2022-08-21T12:15:51;1.98;;;1.40;;
10586;SDS011;5341;47.606;7.576;2022-08-21T12:18:27;1.77;;;1.30;;
10586;SDS011;5341;47.606;7.576;2022-08-21T12:20:58;3.95;;;1.30;;
10586;SDS011;5341;47.606;7.576;2022-08-21T12:23:29;1.38;;;1.13;;
10586;SDS011;5341;47.606;7.576;2022-08-21T12:28:49;1.60;;;1.20;;
10586;SDS011;5341;47.606;7.576;2022-08-21T12:31:18;2.28;;;1.20;;
10586;SDS011;5341;47.606;7.576;2022-08-21T12:33:50;1.85;;;1.15;;
10586;SDS011;5341;47.606;7.576;2022-08-21T12:36:23;1.52;;;1.10;;
10586;SDS011;5341;47.606;7.576;2022-08-21T12:38:54;1.90;;;1.05;;
10586;SDS011;5341;47.606;7.576;2022-08-21T12:41:27;1.63;;;1.00;;
10586;SDS011;5341;47.606;7.576;2022-08-21T12:43:59;1.52;;;1.13;;
10586;SDS011;5341;47.606;7.576;2022-08-21T12:46:34;1.83;;;1.15;;
10586;SDS011;5341;47.606;7.576;2022-08-21T12:49:07;1.65;;;1.23;;
10586;SDS011;5341;47.606;7.576;2022-08-21T12:51:48;2.65;;;1.10;;
10586;SDS011;5341;47.606;7.576;2022-08-21T12:54:23;1.27;;;1.17;;
10586;SDS011;5341;47.606;7.576;2022-08-21T12:56:59;1.40;;;1.20;;
10586;SDS011;5341;47.606;7.576;2022-08-21T12:59:28;2.88;;;1.30;;
10586;SDS011;5341;47.606;7.576;2022-08-21T13:01:57;2.42;;;1.25;;
10586;SDS011;5341;47.606;7.576;2022-08-21T13:04:33;1.75;;;1.10;;
10586;SDS011;5341;47.606;7.576;2022-08-21T13:07:05;1.70;;;1.30;;
10586;SDS011;5341;47.606;7.576;2022-08-21T13:09:36;1.33;;;1.23;;
10586;SDS011;5341;47.606;7.576;2022-08-21T13:12:12;1.05;;;0.95;;
10586;SDS011;5341;47.606;7.576;2022-08-21T13:14:44;2.90;;;1.30;;
10586;SDS011;5341;47.606;7.576;2022-08-21T13:17:14;2.63;;;1.60;;
10586;SDS011;5341;47.606;7.576;2022-08-21T13:19:52;1.58;;;1.20;;
10586;SDS011;5341;47.606;7.576;2022-08-21T13:22:21;1.42;;;1.20;;
10586;SDS011;5341;47.606;7.576;2022-08-21T13:24:49;1.30;;;1.20;;
10586;SDS011;5341;47.606;7.576;2022-08-21T13:27:21;2.65;;;1.17;;
10586;SDS011;5341;47.606;7.576;2022-08-21T13:30:07;2.17;;;1.23;;
10586;SDS011;5341;47.606;7.576;2022-08-21T13:32:37;2.33;;;1.20;;
10586;SDS011;5341;47.606;7.576;2022-08-21T13:35:08;3.83;;;1.30;;
10586;SDS011;5341;47.606;7.576;2022-08-21T13:37:39;1.58;;;1.27;;
10586;SDS011;5341;47.606;7.576;2022-08-21T13:40:12;1.92;;;1.20;;
10586;SDS011;5341;47.606;7.576;2022-08-21T13:42:46;1.45;;;1.30;;
10586;SDS011;5341;47.606;7.576;2022-08-21T13:45:17;1.98;;;1.25;;
10586;SDS011;5341;47.606;7.576;2022-08-21T13:47:49;5.68;;;1.40;;
10586;SDS011;5341;47.606;7.576;2022-08-21T13:50:18;1.77;;;1.30;;
10586;SDS011;5341;47.606;7.576;2022-08-21T13:52:54;2.50;;;1.48;;
10586;SDS011;5341;47.606;7.576;2022-08-21T13:55:24;2.00;;;1.40;;
10586;SDS011;5341;47.606;7.576;2022-08-21T14:00:43;3.10;;;1.33;;
10586;SDS011;5341;47.606;7.576;2022-08-21T14:03:13;2.78;;;1.58;;
10586;SDS011;5341;47.606;7.576;2022-08-21T14:05:57;2.05;;;1.40;;
10586;SDS011;5341;47.606;7.576;2022-08-21T14:08:27;3.40;;;1.85;;
10586;SDS011;5341;47.606;7.576;2022-08-21T14:10:59;4.18;;;1.75;;
10586;SDS011;5341;47.606;7.576;2022-08-21T14:13:33;1.60;;;1.50;;
10586;SDS011;5341;47.606;7.576;2022-08-21T14:16:10;2.05;;;1.45;;
10586;SDS011;5341;47.606;7.576;2022-08-21T14:18:43;3.55;;;1.63;;
10586;SDS011;5341;47.606;7.576;2022-08-21T14:21:14;4.20;;;1.80;;
10586;SDS011;5341;47.606;7.576;2022-08-21T14:23:59;5.50;;;1.70;;
10586;SDS011;5341;47.606;7.576;2022-08-21T14:26:30;4.03;;;2.03;;
10586;SDS011;5341;47.606;7.576;2022-08-21T14:29:04;2.58;;;1.70;;
10586;SDS011;5341;47.606;7.576;2022-08-21T14:31:35;3.22;;;1.80;;
10586;SDS011;5341;47.606;7.576;2022-08-21T14:34:03;3.97;;;2.20;;
10586;SDS011;5341;47.606;7.576;2022-08-21T14:36:31;2.47;;;1.73;;
10586;SDS011;5341;47.606;7.576;2022-08-21T14:38:58;3.05;;;1.60;;
10586;SDS011;5341;47.606;7.576;2022-08-21T14:41:26;3.80;;;1.90;;
10586;SDS011;5341;47.606;7.576;2022-08-21T14:43:55;3.50;;;1.90;;
10586;SDS011;5341;47.606;7.576;2022-08-21T14:46:27;2.60;;;1.60;;
10586;SDS011;5341;47.606;7.576;2022-08-21T14:48:56;5.25;;;1.90;;
10586;SDS011;5341;47.606;7.576;2022-08-21T14:51:23;5.25;;;1.75;;
10586;SDS011;5341;47.606;7.576;2022-08-21T14:53:51;4.50;;;2.05;;
10586;SDS011;5341;47.606;7.576;2022-08-21T14:56:18;2.72;;;1.75;;
10586;SDS011;5341;47.606;7.576;2022-08-21T14:58:47;3.35;;;1.80;;
10586;SDS011;5341;47.606;7.576;2022-08-21T15:01:17;3.25;;;1.80;;
10586;SDS011;5341;47.606;7.576;2022-08-21T15:03:48;3.00;;;1.73;;
10586;SDS011;5341;47.606;7.576;2022-08-21T15:06:16;2.38;;;1.65;;
10586;SDS011;5341;47.606;7.576;2022-08-21T15:08:46;4.65;;;1.80;;
10586;SDS011;5341;47.606;7.576;2022-08-21T15:11:16;3.60;;;1.75;;
10586;SDS011;5341;47.606;7.576;2022-08-21T15:13:45;2.80;;;1.70;;
10586;SDS011;5341;47.606;7.576;2022-08-21T15:16:13;5.05;;;1.63;;
10586;SDS011;5341;47.606;7.576;2022-08-21T15:18:41;7.90;;;2.00;;
10586;SDS011;5341;47.606;7.576;2022-08-21T15:21:11;4.10;;;1.90;;
10586;SDS011;5341;47.606;7.576;2022-08-21T15:23:38;3.13;;;1.60;;
10586;SDS011;5341;47.606;7.576;2022-08-21T15:26:06;5.68;;;1.90;;
10586;SDS011;5341;47.606;7.576;2022-08-21T15:28:34;2.78;;;1.80;;
10586;SDS011;5341;47.606;7.576;2022-08-21T15:31:03;2.08;;;1.63;;
10586;SDS011;5341;47.606;7.576;2022-08-21T15:33:31;3.65;;;1.80;;